sensor_id;sensor_type;location;lat;lon;timestamp;temperature;humidity
3466;DHT22;1747;48.884;9.160;2022-07-23T00:01:02;26.30;95.20
3466;DHT22;1747;48.884;9.160;2022-07-23T00:03:29;26.40;94.80
3466;DHT22;1747;48.884;9.160;2022-07-23T00:05:56;26.40;94.60
3466;DHT22;1747;48.884;9.160;2022-07-23T00:08:24;26.40;94.40
3466;DHT22;1747;48.884;9.160;2022-07-23T00:10:51;26.50;93.80
3466;DHT22;1747;48.884;9.160;2022-07-23T00:13:18;26.50;93.60
3466;DHT22;1747;48.884;9.160;2022-07-23T00:15:44;26.50;93.50
3466;DHT22;1747;48.884;9.160;2022-07-23T00:18:11;26.50;93.20
3466;DHT22;1747;48.884;9.160;2022-07-23T00:20:38;26.60;93.20
3466;DHT22;1747;48.884;9.160;2022-07-23T00:23:05;26.50;92.90
3466;DHT22;1747;48.884;9.160;2022-07-23T00:25:33;26.50;92.80
3466;DHT22;1747;48.884;9.160;2022-07-23T00:28:00;26.50;92.70
3466;DHT22;1747;48.884;9.160;2022-07-23T00:30:28;26.50;92.70
3466;DHT22;1747;48.884;9.160;2022-07-23T00:32:58;26.50;92.60
3466;DHT22;1747;48.884;9.160;2022-07-23T00:35:27;26.50;92.60
3466;DHT22;1747;48.884;9.160;2022-07-23T00:37:54;26.40;92.70
3466;DHT22;1747;48.884;9.160;2022-07-23T00:40:21;26.40;92.60
3466;DHT22;1747;48.884;9.160;2022-07-23T00:42:50;26.30;92.60
3466;DHT22;1747;48.884;9.160;2022-07-23T00:45:17;26.30;92.80
3466;DHT22;1747;48.884;9.160;2022-07-23T00:47:44;26.30;92.60
3466;DHT22;1747;48.884;9.160;2022-07-23T00:50:11;26.30;92.70
3466;DHT22;1747;48.884;9.160;2022-07-23T00:52:39;26.20;92.90
3466;DHT22;1747;48.884;9.160;2022-07-23T00:55:07;26.20;92.70
3466;DHT22;1747;48.884;9.160;2022-07-23T00:57:35;26.10;92.80
3466;DHT22;1747;48.884;9.160;2022-07-23T01:00:05;26.10;92.80
3466;DHT22;1747;48.884;9.160;2022-07-23T01:02:32;26.10;92.80
3466;DHT22;1747;48.884;9.160;2022-07-23T01:04:59;26.10;92.80
3466;DHT22;1747;48.884;9.160;2022-07-23T01:07:26;26.00;92.90
3466;DHT22;1747;48.884;9.160;2022-07-23T01:09:54;25.90;92.90
3466;DHT22;1747;48.884;9.160;2022-07-23T01:12:21;25.90;93.10
3466;DHT22;1747;48.884;9.160;2022-07-23T01:14:53;25.90;93.00
3466;DHT22;1747;48.884;9.160;2022-07-23T01:17:22;25.80;93.20
3466;DHT22;1747;48.884;9.160;2022-07-23T01:19:49;25.80;93.30
3466;DHT22;1747;48.884;9.160;2022-07-23T01:22:18;25.80;93.40
3466;DHT22;1747;48.884;9.160;2022-07-23T01:24:46;25.70;93.50
3466;DHT22;1747;48.884;9.160;2022-07-23T01:27:13;25.60;93.50
3466;DHT22;1747;48.884;9.160;2022-07-23T01:29:40;25.50;93.60
3466;DHT22;1747;48.884;9.160;2022-07-23T01:32:07;25.40;93.80
3466;DHT22;1747;48.884;9.160;2022-07-23T01:34:34;25.40;93.80
3466;DHT22;1747;48.884;9.160;2022-07-23T01:37:00;25.40;94.00
3466;DHT22;1747;48.884;9.160;2022-07-23T01:39:27;25.30;94.10
3466;DHT22;1747;48.884;9.160;2022-07-23T01:41:55;25.30;94.30
3466;DHT22;1747;48.884;9.160;2022-07-23T01:44:22;25.30;94.30
3466;DHT22;1747;48.884;9.160;2022-07-23T01:46:50;25.20;94.60
3466;DHT22;1747;48.884;9.160;2022-07-23T01:49:17;25.10;94.60
3466;DHT22;1747;48.884;9.160;2022-07-23T01:51:44;25.10;94.90
3466;DHT22;1747;48.884;9.160;2022-07-23T01:54:25;25.10;94.70
3466;DHT22;1747;48.884;9.160;2022-07-23T01:56:51;25.10;94.70
3466;DHT22;1747;48.884;9.160;2022-07-23T01:59:20;25.00;95.20
3466;DHT22;1747;48.884;9.160;2022-07-23T02:01:47;24.90;95.30
3466;DHT22;1747;48.884;9.160;2022-07-23T02:04:16;24.90;95.10
3466;DHT22;1747;48.884;9.160;2022-07-23T02:06:43;24.80;95.20
3466;DHT22;1747;48.884;9.160;2022-07-23T02:09:10;24.80;95.70
3466;DHT22;1747;48.884;9.160;2022-07-23T02:11:37;24.70;96.00
3466;DHT22;1747;48.884;9.160;2022-07-23T02:14:04;24.60;96.20
3466;DHT22;1747;48.884;9.160;2022-07-23T02:16:32;24.50;96.90
3466;DHT22;1747;48.884;9.160;2022-07-23T02:18:59;24.50;97.30
3466;DHT22;1747;48.884;9.160;2022-07-23T02:21:26;24.50;97.30
3466;DHT22;1747;48.884;9.160;2022-07-23T02:23:53;24.50;97.80
3466;DHT22;1747;48.884;9.160;2022-07-23T02:26:20;24.30;98.10
3466;DHT22;1747;48.884;9.160;2022-07-23T02:28:46;24.20;98.30
3466;DHT22;1747;48.884;9.160;2022-07-23T02:31:13;24.10;98.60
3466;DHT22;1747;48.884;9.160;2022-07-23T02:33:41;23.90;98.70
3466;DHT22;1747;48.884;9.160;2022-07-23T02:36:09;23.90;98.90
3466;DHT22;1747;48.884;9.160;2022-07-23T02:38:35;23.70;99.70
3466;DHT22;1747;48.884;9.160;2022-07-23T02:41:03;23.70;99.80
3466;DHT22;1747;48.884;9.160;2022-07-23T02:43:29;23.60;99.80
3466;DHT22;1747;48.884;9.160;2022-07-23T02:45:56;23.60;99.90
3466;DHT22;1747;48.884;9.160;2022-07-23T02:48:23;23.60;99.90
3466;DHT22;1747;48.884;9.160;2022-07-23T02:50:51;23.40;99.90
3466;DHT22;1747;48.884;9.160;2022-07-23T02:53:18;23.30;99.90
3466;DHT22;1747;48.884;9.160;2022-07-23T02:55:45;23.20;99.90
3466;DHT22;1747;48.884;9.160;2022-07-23T02:58:11;23.20;99.90
3466;DHT22;1747;48.884;9.160;2022-07-23T03:00:38;23.10;99.90
3466;DHT22;1747;48.884;9.160;2022-07-23T03:03:05;23.10;99.90
3466;DHT22;1747;48.884;9.160;2022-07-23T03:05:33;23.10;99.90
3466;DHT22;1747;48.884;9.160;2022-07-23T03:08:01;23.10;99.90
3466;DHT22;1747;48.884;9.160;2022-07-23T03:10:28;23.10;99.90
3466;DHT22;1747;48.884;9.160;2022-07-23T03:12:55;23.20;99.90
3466;DHT22;1747;48.884;9.160;2022-07-23T03:15:22;23.30;99.90
3466;DHT22;1747;48.884;9.160;2022-07-23T03:17:49;23.30;99.90
3466;DHT22;1747;48.884;9.160;2022-07-23T03:20:15;23.40;99.90
3466;DHT22;1747;48.884;9.160;2022-07-23T03:22:42;23.40;99.90
3466;DHT22;1747;48.884;9.160;2022-07-23T03:25:10;23.40;99.90
3466;DHT22;1747;48.884;9.160;2022-07-23T03:27:37;23.40;99.80
3466;DHT22;1747;48.884;9.160;2022-07-23T03:30:05;23.40;99.80
3466;DHT22;1747;48.884;9.160;2022-07-23T03:32:32;23.30;99.90
3466;DHT22;1747;48.884;9.160;2022-07-23T03:34:59;23.20;99.90
3466;DHT22;1747;48.884;9.160;2022-07-23T03:37:26;23.10;99.90
3466;DHT22;1747;48.884;9.160;2022-07-23T03:39:53;23.10;99.90
3466;DHT22;1747;48.884;9.160;2022-07-23T03:42:22;23.10;99.90
3466;DHT22;1747;48.884;9.160;2022-07-23T03:44:48;23.10;99.90
3466;DHT22;1747;48.884;9.160;2022-07-23T03:47:15;23.10;99.90
3466;DHT22;1747;48.884;9.160;2022-07-23T03:49:47;23.00;99.90
3466;DHT22;1747;48.884;9.160;2022-07-23T03:52:13;23.00;99.90
3466;DHT22;1747;48.884;9.160;2022-07-23T03:54:40;23.00;99.90
3466;DHT22;1747;48.884;9.160;2022-07-23T03:57:07;23.00;99.90
3466;DHT22;1747;48.884;9.160;2022-07-23T03:59:35;23.00;99.90
3466;DHT22;1747;48.884;9.160;2022-07-23T04:02:02;23.00;99.90
3466;DHT22;1747;48.884;9.160;2022-07-23T04:04:29;23.00;99.90
3466;DHT22;1747;48.884;9.160;2022-07-23T04:06:56;22.90;99.90
3466;DHT22;1747;48.884;9.160;2022-07-23T04:09:22;22.90;99.90
3466;DHT22;1747;48.884;9.160;2022-07-23T04:11:49;22.80;99.90
3466;DHT22;1747;48.884;9.160;2022-07-23T04:14:16;22.80;99.90
3466;DHT22;1747;48.884;9.160;2022-07-23T04:16:44;22.70;99.90
3466;DHT22;1747;48.884;9.160;2022-07-23T04:19:11;22.70;99.90
3466;DHT22;1747;48.884;9.160;2022-07-23T04:21:38;22.70;99.90
3466;DHT22;1747;48.884;9.160;2022-07-23T04:24:05;22.70;99.90
3466;DHT22;1747;48.884;9.160;2022-07-23T04:26:35;22.70;99.90
3466;DHT22;1747;48.884;9.160;2022-07-23T04:29:02;22.70;99.90
3466;DHT22;1747;48.884;9.160;2022-07-23T04:31:29;22.70;99.90
3466;DHT22;1747;48.884;9.160;2022-07-23T04:33:57;22.70;99.90
3466;DHT22;1747;48.884;9.160;2022-07-23T04:36:24;22.70;99.90
3466;DHT22;1747;48.884;9.160;2022-07-23T04:38:50;22.70;99.90
3466;DHT22;1747;48.884;9.160;2022-07-23T04:41:17;22.70;99.90
3466;DHT22;1747;48.884;9.160;2022-07-23T04:43:44;22.70;99.90
3466;DHT22;1747;48.884;9.160;2022-07-23T04:46:11;22.70;99.90
3466;DHT22;1747;48.884;9.160;2022-07-23T04:48:37;22.60;99.90
3466;DHT22;1747;48.884;9.160;2022-07-23T04:51:06;22.70;99.90
3466;DHT22;1747;48.884;9.160;2022-07-23T04:53:33;22.70;99.90
3466;DHT22;1747;48.884;9.160;2022-07-23T04:55:59;22.70;99.90
3466;DHT22;1747;48.884;9.160;2022-07-23T04:58:26;22.80;99.90
3466;DHT22;1747;48.884;9.160;2022-07-23T05:00:53;22.90;99.90
3466;DHT22;1747;48.884;9.160;2022-07-23T05:03:23;23.00;99.90
3466;DHT22;1747;48.884;9.160;2022-07-23T05:05:50;23.00;99.90
3466;DHT22;1747;48.884;9.160;2022-07-23T05:08:18;23.10;99.90
3466;DHT22;1747;48.884;9.160;2022-07-23T05:10:46;23.10;99.90
3466;DHT22;1747;48.884;9.160;2022-07-23T05:13:14;23.20;99.90
3466;DHT22;1747;48.884;9.160;2022-07-23T05:15:41;23.30;99.90
3466;DHT22;1747;48.884;9.160;2022-07-23T05:18:08;23.40;99.90
3466;DHT22;1747;48.884;9.160;2022-07-23T05:20:35;23.40;99.90
3466;DHT22;1747;48.884;9.160;2022-07-23T05:23:02;23.50;99.90
3466;DHT22;1747;48.884;9.160;2022-07-23T05:25:30;23.60;99.90
3466;DHT22;1747;48.884;9.160;2022-07-23T05:27:57;23.70;99.90
3466;DHT22;1747;48.884;9.160;2022-07-23T05:30:24;23.70;99.90
3466;DHT22;1747;48.884;9.160;2022-07-23T05:32:51;23.80;99.90
3466;DHT22;1747;48.884;9.160;2022-07-23T05:35:18;23.80;99.90
3466;DHT22;1747;48.884;9.160;2022-07-23T05:37:44;23.80;99.90
3466;DHT22;1747;48.884;9.160;2022-07-23T05:40:12;23.90;99.90
3466;DHT22;1747;48.884;9.160;2022-07-23T05:42:41;23.90;99.90
3466;DHT22;1747;48.884;9.160;2022-07-23T05:45:09;23.90;99.90
3466;DHT22;1747;48.884;9.160;2022-07-23T05:47:46;24.00;99.90
3466;DHT22;1747;48.884;9.160;2022-07-23T05:50:13;24.10;99.90
3466;DHT22;1747;48.884;9.160;2022-07-23T05:52:41;24.20;99.90
3466;DHT22;1747;48.884;9.160;2022-07-23T05:55:09;24.20;99.90
3466;DHT22;1747;48.884;9.160;2022-07-23T05:57:36;24.20;99.90
3466;DHT22;1747;48.884;9.160;2022-07-23T06:00:06;24.10;99.90
3466;DHT22;1747;48.884;9.160;2022-07-23T06:02:33;24.10;99.90
3466;DHT22;1747;48.884;9.160;2022-07-23T06:05:00;24.00;99.90
3466;DHT22;1747;48.884;9.160;2022-07-23T06:07:27;24.00;99.90
3466;DHT22;1747;48.884;9.160;2022-07-23T06:09:54;23.90;99.90
3466;DHT22;1747;48.884;9.160;2022-07-23T06:12:20;23.80;99.90
3466;DHT22;1747;48.884;9.160;2022-07-23T06:14:47;23.80;99.90
3466;DHT22;1747;48.884;9.160;2022-07-23T06:17:16;23.80;99.90
3466;DHT22;1747;48.884;9.160;2022-07-23T06:19:43;23.80;99.90
3466;DHT22;1747;48.884;9.160;2022-07-23T06:22:10;23.90;99.90
3466;DHT22;1747;48.884;9.160;2022-07-23T06:24:37;23.90;99.90
3466;DHT22;1747;48.884;9.160;2022-07-23T06:27:04;23.90;99.90
3466;DHT22;1747;48.884;9.160;2022-07-23T06:29:30;24.00;99.90
3466;DHT22;1747;48.884;9.160;2022-07-23T06:31:57;24.10;99.90
3466;DHT22;1747;48.884;9.160;2022-07-23T06:34:25;24.20;99.90
3466;DHT22;1747;48.884;9.160;2022-07-23T06:36:52;24.50;99.90
3466;DHT22;1747;48.884;9.160;2022-07-23T06:39:19;24.60;99.90
3466;DHT22;1747;48.884;9.160;2022-07-23T06:41:46;24.70;99.90
3466;DHT22;1747;48.884;9.160;2022-07-23T06:44:13;24.70;99.90
3466;DHT22;1747;48.884;9.160;2022-07-23T06:46:40;24.90;99.80
3466;DHT22;1747;48.884;9.160;2022-07-23T06:49:07;24.90;99.70
3466;DHT22;1747;48.884;9.160;2022-07-23T06:51:35;24.90;99.80
3466;DHT22;1747;48.884;9.160;2022-07-23T06:54:02;24.90;99.80
3466;DHT22;1747;48.884;9.160;2022-07-23T06:56:29;24.80;99.70
3466;DHT22;1747;48.884;9.160;2022-07-23T06:58:56;24.70;99.90
3466;DHT22;1747;48.884;9.160;2022-07-23T07:01:23;24.60;99.80
3466;DHT22;1747;48.884;9.160;2022-07-23T07:03:49;24.50;99.90
3466;DHT22;1747;48.884;9.160;2022-07-23T07:06:16;24.40;99.90
3466;DHT22;1747;48.884;9.160;2022-07-23T07:08:45;24.20;99.90
3466;DHT22;1747;48.884;9.160;2022-07-23T07:11:11;24.10;99.90
3466;DHT22;1747;48.884;9.160;2022-07-23T07:13:38;23.90;99.90
3466;DHT22;1747;48.884;9.160;2022-07-23T07:16:06;23.80;99.90
3466;DHT22;1747;48.884;9.160;2022-07-23T07:18:32;23.60;99.90
3466;DHT22;1747;48.884;9.160;2022-07-23T07:20:59;23.40;99.90
3466;DHT22;1747;48.884;9.160;2022-07-23T07:23:26;23.30;99.90
3466;DHT22;1747;48.884;9.160;2022-07-23T07:25:54;23.10;99.90
3466;DHT22;1747;48.884;9.160;2022-07-23T07:28:21;23.10;99.90
3466;DHT22;1747;48.884;9.160;2022-07-23T07:30:48;23.10;99.90
3466;DHT22;1747;48.884;9.160;2022-07-23T07:33:15;23.00;99.90
3466;DHT22;1747;48.884;9.160;2022-07-23T07:35:41;23.10;99.90
3466;DHT22;1747;48.884;9.160;2022-07-23T07:38:08;23.20;99.90
3466;DHT22;1747;48.884;9.160;2022-07-23T07:40:35;23.20;99.90
3466;DHT22;1747;48.884;9.160;2022-07-23T07:43:03;23.30;99.90
3466;DHT22;1747;48.884;9.160;2022-07-23T07:45:30;23.50;99.90
3466;DHT22;1747;48.884;9.160;2022-07-23T07:47:57;23.50;99.90
3466;DHT22;1747;48.884;9.160;2022-07-23T07:50:24;23.50;99.90
3466;DHT22;1747;48.884;9.160;2022-07-23T07:52:51;23.60;99.90
3466;DHT22;1747;48.884;9.160;2022-07-23T07:55:18;23.60;99.90
3466;DHT22;1747;48.884;9.160;2022-07-23T07:57:45;23.60;99.90
3466;DHT22;1747;48.884;9.160;2022-07-23T08:00:14;23.60;99.90
3466;DHT22;1747;48.884;9.160;2022-07-23T08:02:42;23.50;99.90
3466;DHT22;1747;48.884;9.160;2022-07-23T08:05:09;23.60;99.90
3466;DHT22;1747;48.884;9.160;2022-07-23T08:07:36;23.50;99.90
3466;DHT22;1747;48.884;9.160;2022-07-23T08:10:05;23.40;99.90
3466;DHT22;1747;48.884;9.160;2022-07-23T08:12:41;23.30;99.90
3466;DHT22;1747;48.884;9.160;2022-07-23T08:15:08;23.30;99.90
3466;DHT22;1747;48.884;9.160;2022-07-23T08:17:37;23.30;99.90
3466;DHT22;1747;48.884;9.160;2022-07-23T08:20:05;23.30;99.90
3466;DHT22;1747;48.884;9.160;2022-07-23T08:22:48;23.30;99.90
3466;DHT22;1747;48.884;9.160;2022-07-23T08:25:16;23.30;99.90
3466;DHT22;1747;48.884;9.160;2022-07-23T08:27:46;23.40;99.90
3466;DHT22;1747;48.884;9.160;2022-07-23T08:30:13;23.30;99.90
3466;DHT22;1747;48.884;9.160;2022-07-23T08:32:52;23.40;99.90
3466;DHT22;1747;48.884;9.160;2022-07-23T08:35:23;23.50;99.90
3466;DHT22;1747;48.884;9.160;2022-07-23T08:37:50;23.90;99.90
3466;DHT22;1747;48.884;9.160;2022-07-23T08:40:20;24.00;99.90
3466;DHT22;1747;48.884;9.160;2022-07-23T08:42:49;24.00;99.90
3466;DHT22;1747;48.884;9.160;2022-07-23T08:45:17;24.20;99.90
3466;DHT22;1747;48.884;9.160;2022-07-23T08:47:49;24.30;99.90
3466;DHT22;1747;48.884;9.160;2022-07-23T08:50:17;24.50;99.90
3466;DHT22;1747;48.884;9.160;2022-07-23T08:52:45;24.70;99.90
3466;DHT22;1747;48.884;9.160;2022-07-23T08:55:12;24.90;99.90
3466;DHT22;1747;48.884;9.160;2022-07-23T08:57:39;25.00;99.90
3466;DHT22;1747;48.884;9.160;2022-07-23T09:00:07;25.00;99.90
3466;DHT22;1747;48.884;9.160;2022-07-23T09:02:39;25.10;99.90
3466;DHT22;1747;48.884;9.160;2022-07-23T09:05:07;25.20;99.90
3466;DHT22;1747;48.884;9.160;2022-07-23T09:07:36;25.40;99.90
3466;DHT22;1747;48.884;9.160;2022-07-23T09:10:10;25.70;99.90
3466;DHT22;1747;48.884;9.160;2022-07-23T09:12:37;25.80;99.90
3466;DHT22;1747;48.884;9.160;2022-07-23T09:15:06;25.90;99.90
3466;DHT22;1747;48.884;9.160;2022-07-23T09:17:37;26.10;99.90
3466;DHT22;1747;48.884;9.160;2022-07-23T09:20:09;26.10;99.80
3466;DHT22;1747;48.884;9.160;2022-07-23T09:22:37;26.10;99.90
3466;DHT22;1747;48.884;9.160;2022-07-23T09:25:10;26.10;99.50
3466;DHT22;1747;48.884;9.160;2022-07-23T09:27:49;26.30;99.20
3466;DHT22;1747;48.884;9.160;2022-07-23T09:30:16;26.50;98.90
3466;DHT22;1747;48.884;9.160;2022-07-23T09:32:43;26.60;99.00
3466;DHT22;1747;48.884;9.160;2022-07-23T09:35:10;26.80;98.80
3466;DHT22;1747;48.884;9.160;2022-07-23T09:37:38;27.00;98.70
3466;DHT22;1747;48.884;9.160;2022-07-23T09:40:07;27.00;98.70
3466;DHT22;1747;48.884;9.160;2022-07-23T09:42:34;27.00;98.40
3466;DHT22;1747;48.884;9.160;2022-07-23T09:45:02;27.10;97.00
3466;DHT22;1747;48.884;9.160;2022-07-23T09:47:31;27.10;97.00
3466;DHT22;1747;48.884;9.160;2022-07-23T09:49:59;27.10;96.60
3466;DHT22;1747;48.884;9.160;2022-07-23T09:52:28;27.10;96.50
3466;DHT22;1747;48.884;9.160;2022-07-23T09:55:00;27.20;96.40
3466;DHT22;1747;48.884;9.160;2022-07-23T09:57:28;27.40;96.30
3466;DHT22;1747;48.884;9.160;2022-07-23T09:59:58;27.50;96.40
3466;DHT22;1747;48.884;9.160;2022-07-23T10:02:28;27.70;96.00
3466;DHT22;1747;48.884;9.160;2022-07-23T10:04:58;27.70;95.50
3466;DHT22;1747;48.884;9.160;2022-07-23T10:07:26;27.70;95.50
3466;DHT22;1747;48.884;9.160;2022-07-23T10:09:55;27.80;96.00
3466;DHT22;1747;48.884;9.160;2022-07-23T10:12:25;27.80;96.30
3466;DHT22;1747;48.884;9.160;2022-07-23T10:15:20;27.80;97.10
3466;DHT22;1747;48.884;9.160;2022-07-23T10:17:48;28.00;94.80
3466;DHT22;1747;48.884;9.160;2022-07-23T10:20:15;28.10;94.50
3466;DHT22;1747;48.884;9.160;2022-07-23T10:22:46;28.20;94.90
3466;DHT22;1747;48.884;9.160;2022-07-23T10:25:22;28.20;95.50
3466;DHT22;1747;48.884;9.160;2022-07-23T10:28:06;28.40;95.50
3466;DHT22;1747;48.884;9.160;2022-07-23T10:30:43;28.60;94.70
3466;DHT22;1747;48.884;9.160;2022-07-23T10:33:30;28.70;94.10
3466;DHT22;1747;48.884;9.160;2022-07-23T10:36:09;28.70;94.80
3466;DHT22;1747;48.884;9.160;2022-07-23T10:38:42;28.70;95.00
3466;DHT22;1747;48.884;9.160;2022-07-23T10:41:12;28.70;95.70
3466;DHT22;1747;48.884;9.160;2022-07-23T10:43:40;28.70;95.40
3466;DHT22;1747;48.884;9.160;2022-07-23T10:46:22;28.70;95.00
3466;DHT22;1747;48.884;9.160;2022-07-23T10:49:22;28.80;94.70
3466;DHT22;1747;48.884;9.160;2022-07-23T10:52:19;28.90;94.60
3466;DHT22;1747;48.884;9.160;2022-07-23T10:54:47;29.00;94.40
3466;DHT22;1747;48.884;9.160;2022-07-23T10:57:15;29.30;92.70
3466;DHT22;1747;48.884;9.160;2022-07-23T11:00:18;29.30;92.60
3466;DHT22;1747;48.884;9.160;2022-07-23T11:02:48;29.30;92.10
3466;DHT22;1747;48.884;9.160;2022-07-23T11:05:17;29.50;92.10
3466;DHT22;1747;48.884;9.160;2022-07-23T11:10:53;29.70;92.10
3466;DHT22;1747;48.884;9.160;2022-07-23T11:13:45;29.90;91.30
3466;DHT22;1747;48.884;9.160;2022-07-23T11:16:19;29.90;90.00
3466;DHT22;1747;48.884;9.160;2022-07-23T11:19:05;29.90;90.30
3466;DHT22;1747;48.884;9.160;2022-07-23T11:21:56;30.00;88.90
3466;DHT22;1747;48.884;9.160;2022-07-23T11:24:24;30.10;87.20
3466;DHT22;1747;48.884;9.160;2022-07-23T11:26:56;30.20;86.60
3466;DHT22;1747;48.884;9.160;2022-07-23T11:29:38;30.40;86.70
3466;DHT22;1747;48.884;9.160;2022-07-23T11:32:17;30.20;86.10
3466;DHT22;1747;48.884;9.160;2022-07-23T11:34:46;30.20;85.80
3466;DHT22;1747;48.884;9.160;2022-07-23T11:37:27;30.20;86.70
3466;DHT22;1747;48.884;9.160;2022-07-23T11:39:55;30.30;86.00
3466;DHT22;1747;48.884;9.160;2022-07-23T11:42:22;30.40;85.80
3466;DHT22;1747;48.884;9.160;2022-07-23T11:44:49;30.40;86.40
3466;DHT22;1747;48.884;9.160;2022-07-23T11:47:22;30.40;87.20
3466;DHT22;1747;48.884;9.160;2022-07-23T11:49:53;30.50;86.40
3466;DHT22;1747;48.884;9.160;2022-07-23T11:52:20;30.60;86.70
3466;DHT22;1747;48.884;9.160;2022-07-23T11:54:48;30.70;86.50
3466;DHT22;1747;48.884;9.160;2022-07-23T11:57:16;30.80;84.20
3466;DHT22;1747;48.884;9.160;2022-07-23T11:59:46;30.90;83.90
3466;DHT22;1747;48.884;9.160;2022-07-23T12:02:14;31.20;82.80
3466;DHT22;1747;48.884;9.160;2022-07-23T12:04:43;31.50;82.80
3466;DHT22;1747;48.884;9.160;2022-07-23T12:07:28;31.80;81.40
3466;DHT22;1747;48.884;9.160;2022-07-23T12:09:56;32.20;80.30
3466;DHT22;1747;48.884;9.160;2022-07-23T12:12:24;32.60;79.40
3466;DHT22;1747;48.884;9.160;2022-07-23T12:14:52;32.90;76.90
3466;DHT22;1747;48.884;9.160;2022-07-23T12:17:21;33.20;75.40
3466;DHT22;1747;48.884;9.160;2022-07-23T12:19:50;33.30;75.70
3466;DHT22;1747;48.884;9.160;2022-07-23T12:22:17;33.70;75.10
3466;DHT22;1747;48.884;9.160;2022-07-23T12:24:58;33.80;75.00
3466;DHT22;1747;48.884;9.160;2022-07-23T12:27:26;34.30;72.50
3466;DHT22;1747;48.884;9.160;2022-07-23T12:29:54;34.70;73.30
3466;DHT22;1747;48.884;9.160;2022-07-23T12:35:03;35.30;69.90
3466;DHT22;1747;48.884;9.160;2022-07-23T12:37:31;35.40;69.50
3466;DHT22;1747;48.884;9.160;2022-07-23T12:39:58;35.80;70.00
3466;DHT22;1747;48.884;9.160;2022-07-23T12:42:45;35.80;68.20
3466;DHT22;1747;48.884;9.160;2022-07-23T12:45:12;35.90;67.80
3466;DHT22;1747;48.884;9.160;2022-07-23T12:47:57;35.70;68.50
3466;DHT22;1747;48.884;9.160;2022-07-23T12:50:44;35.70;68.60
3466;DHT22;1747;48.884;9.160;2022-07-23T12:53:14;35.50;68.10
3466;DHT22;1747;48.884;9.160;2022-07-23T12:55:42;35.50;69.20
3466;DHT22;1747;48.884;9.160;2022-07-23T12:58:12;35.30;69.20
3466;DHT22;1747;48.884;9.160;2022-07-23T13:00:56;35.10;68.90
3466;DHT22;1747;48.884;9.160;2022-07-23T13:03:25;34.90;68.00
3466;DHT22;1747;48.884;9.160;2022-07-23T13:05:54;35.10;66.70
3466;DHT22;1747;48.884;9.160;2022-07-23T13:08:21;35.00;65.40
3466;DHT22;1747;48.884;9.160;2022-07-23T13:10:49;34.80;65.00
3466;DHT22;1747;48.884;9.160;2022-07-23T13:13:18;34.90;66.20
3466;DHT22;1747;48.884;9.160;2022-07-23T13:15:46;34.90;66.40
3466;DHT22;1747;48.884;9.160;2022-07-23T13:18:14;35.00;65.90
3466;DHT22;1747;48.884;9.160;2022-07-23T13:20:42;35.20;65.10
3466;DHT22;1747;48.884;9.160;2022-07-23T13:23:10;35.60;65.50
3466;DHT22;1747;48.884;9.160;2022-07-23T13:25:37;35.90;64.90
3466;DHT22;1747;48.884;9.160;2022-07-23T13:28:04;36.00;64.60
3466;DHT22;1747;48.884;9.160;2022-07-23T13:30:31;35.90;65.00
3466;DHT22;1747;48.884;9.160;2022-07-23T13:32:59;36.00;65.00
3466;DHT22;1747;48.884;9.160;2022-07-23T13:35:26;36.20;64.10
3466;DHT22;1747;48.884;9.160;2022-07-23T13:37:53;36.20;64.20
3466;DHT22;1747;48.884;9.160;2022-07-23T13:40:21;36.40;62.80
3466;DHT22;1747;48.884;9.160;2022-07-23T13:42:48;36.40;62.30
3466;DHT22;1747;48.884;9.160;2022-07-23T13:45:16;36.40;62.90
3466;DHT22;1747;48.884;9.160;2022-07-23T13:47:43;36.50;62.50
3466;DHT22;1747;48.884;9.160;2022-07-23T13:50:10;36.80;62.20
3466;DHT22;1747;48.884;9.160;2022-07-23T13:52:37;36.90;61.70
3466;DHT22;1747;48.884;9.160;2022-07-23T13:55:05;37.10;60.90
3466;DHT22;1747;48.884;9.160;2022-07-23T13:57:34;37.30;60.60
3466;DHT22;1747;48.884;9.160;2022-07-23T14:00:02;37.50;59.30
3466;DHT22;1747;48.884;9.160;2022-07-23T14:02:29;37.80;57.70
3466;DHT22;1747;48.884;9.160;2022-07-23T14:04:57;38.30;57.70
3466;DHT22;1747;48.884;9.160;2022-07-23T14:07:24;38.70;57.80
3466;DHT22;1747;48.884;9.160;2022-07-23T14:09:51;38.90;56.00
3466;DHT22;1747;48.884;9.160;2022-07-23T14:12:18;39.20;55.60
3466;DHT22;1747;48.884;9.160;2022-07-23T14:14:46;39.30;55.30
3466;DHT22;1747;48.884;9.160;2022-07-23T14:17:13;39.40;54.70
3466;DHT22;1747;48.884;9.160;2022-07-23T14:19:40;39.50;54.00
3466;DHT22;1747;48.884;9.160;2022-07-23T14:22:06;39.60;53.60
3466;DHT22;1747;48.884;9.160;2022-07-23T14:24:33;39.70;53.20
3466;DHT22;1747;48.884;9.160;2022-07-23T14:27:01;39.90;53.40
3466;DHT22;1747;48.884;9.160;2022-07-23T14:29:28;40.00;52.50
3466;DHT22;1747;48.884;9.160;2022-07-23T14:31:57;40.20;52.50
3466;DHT22;1747;48.884;9.160;2022-07-23T14:34:24;40.30;51.60
3466;DHT22;1747;48.884;9.160;2022-07-23T14:36:51;40.20;51.80
3466;DHT22;1747;48.884;9.160;2022-07-23T14:39:18;40.30;51.70
3466;DHT22;1747;48.884;9.160;2022-07-23T14:41:45;40.50;52.10
3466;DHT22;1747;48.884;9.160;2022-07-23T14:44:12;40.70;51.90
3466;DHT22;1747;48.884;9.160;2022-07-23T14:46:39;41.00;50.40
3466;DHT22;1747;48.884;9.160;2022-07-23T14:49:07;41.30;51.50
3466;DHT22;1747;48.884;9.160;2022-07-23T14:51:34;41.70;50.50
3466;DHT22;1747;48.884;9.160;2022-07-23T14:54:02;41.50;49.50
3466;DHT22;1747;48.884;9.160;2022-07-23T14:56:29;41.40;50.10
3466;DHT22;1747;48.884;9.160;2022-07-23T14:58:55;41.50;49.80
3466;DHT22;1747;48.884;9.160;2022-07-23T15:01:22;41.60;50.80
3466;DHT22;1747;48.884;9.160;2022-07-23T15:03:49;42.00;49.60
3466;DHT22;1747;48.884;9.160;2022-07-23T15:06:18;42.20;50.50
3466;DHT22;1747;48.884;9.160;2022-07-23T15:08:45;42.10;49.30
3466;DHT22;1747;48.884;9.160;2022-07-23T15:11:11;42.00;50.00
3466;DHT22;1747;48.884;9.160;2022-07-23T15:13:39;42.10;49.30
3466;DHT22;1747;48.884;9.160;2022-07-23T15:16:06;42.40;48.40
3466;DHT22;1747;48.884;9.160;2022-07-23T15:18:34;42.20;49.00
3466;DHT22;1747;48.884;9.160;2022-07-23T15:21:01;42.10;48.40
3466;DHT22;1747;48.884;9.160;2022-07-23T15:23:29;42.30;48.60
3466;DHT22;1747;48.884;9.160;2022-07-23T15:25:56;42.40;47.90
3466;DHT22;1747;48.884;9.160;2022-07-23T15:28:23;42.30;48.40
3466;DHT22;1747;48.884;9.160;2022-07-23T15:30:51;42.20;47.50
3466;DHT22;1747;48.884;9.160;2022-07-23T15:33:19;42.20;48.20
3466;DHT22;1747;48.884;9.160;2022-07-23T15:35:46;42.20;47.70
3466;DHT22;1747;48.884;9.160;2022-07-23T15:38:13;41.80;48.70
3466;DHT22;1747;48.884;9.160;2022-07-23T15:40:41;41.60;48.50
3466;DHT22;1747;48.884;9.160;2022-07-23T15:43:08;41.40;48.80
3466;DHT22;1747;48.884;9.160;2022-07-23T15:45:35;41.20;49.20
3466;DHT22;1747;48.884;9.160;2022-07-23T15:48:02;40.40;48.80
3466;DHT22;1747;48.884;9.160;2022-07-23T15:50:29;39.60;50.30
3466;DHT22;1747;48.884;9.160;2022-07-23T15:52:56;38.90;51.70
3466;DHT22;1747;48.884;9.160;2022-07-23T15:55:23;38.50;52.10
3466;DHT22;1747;48.884;9.160;2022-07-23T15:57:51;38.10;52.00
3466;DHT22;1747;48.884;9.160;2022-07-23T16:00:18;37.70;52.20
3466;DHT22;1747;48.884;9.160;2022-07-23T16:02:45;37.30;53.00
3466;DHT22;1747;48.884;9.160;2022-07-23T16:05:12;37.00;53.80
3466;DHT22;1747;48.884;9.160;2022-07-23T16:07:58;36.60;53.50
3466;DHT22;1747;48.884;9.160;2022-07-23T16:10:24;36.20;55.00
3466;DHT22;1747;48.884;9.160;2022-07-23T16:12:53;35.70;54.80
3466;DHT22;1747;48.884;9.160;2022-07-23T16:15:20;35.40;54.90
3466;DHT22;1747;48.884;9.160;2022-07-23T16:17:47;35.30;56.10